Time;durP1;ratioP1;P1;durP2;ratioP2;P2;SDS_P1;SDS_P2;PMS_P1;PMS_P2;Temp;Humidity;BMP_temperature;BMP_pressure;BME280_temperature;BME280_humidity;BME280_pressure;Samples;Min_cycle;Max_cycle;Signal;HPM_P1;HPM_P2
2023/07/23 00:02:05;;;;;;;22.52;7.40;;;;;;;28.75;53.43;99071.91;5013104;28;20052;-76
2023/07/23 00:04:31;;;;;;;20.42;8.15;;;;;;;28.57;54.25;99079.97;5011205;28;20026;-76
2023/07/23 00:06:56;;;;;;;22.58;8.77;;;;;;;28.32;54.96;99075.13;5012924;28;20026;-76
2023/07/23 00:09:22;;;;;;;20.05;7.63;;;;;;;28.43;54.42;99072.66;5011229;28;20061;-76
2023/07/23 00:11:47;;;;;;;15.55;8.85;;;;;;;28.72;52.98;99068.72;5011708;28;20084;-76
2023/07/23 00:14:12;;;;;;;17.48;8.10;;;;;;;29.06;52.28;99076.88;5012618;28;20026;-76
2023/07/23 00:16:38;;;;;;;26.52;9.43;;;;;;;29.14;51.54;99081.09;5009395;28;20025;-76
2023/07/23 00:19:04;;;;;;;32.75;9.38;;;;;;;29.20;51.17;99084.16;5012656;28;20022;-76
2023/07/23 00:21:31;;;;;;;23.42;7.80;;;;;;;29.30;50.81;99091.53;5012231;28;20037;-76
2023/07/23 00:23:56;;;;;;;26.35;8.15;;;;;;;29.32;50.58;99079.53;5012624;28;20025;-76
2023/07/23 00:26:21;;;;;;;23.73;7.25;;;;;;;29.61;49.60;99076.28;5009487;28;20171;-76
2023/07/23 00:28:47;;;;;;;18.10;7.93;;;;;;;29.67;49.09;99077.28;5009895;28;20064;-76
2023/07/23 00:31:12;;;;;;;31.13;8.77;;;;;;;29.16;50.81;99075.66;5011177;28;20029;-76
2023/07/23 00:33:38;;;;;;;24.83;7.90;;;;;;;28.78;51.82;99082.47;5012278;28;20052;-76
2023/07/23 00:36:03;;;;;;;24.15;7.20;;;;;;;28.82;51.86;99077.41;5012193;28;20034;-76
2023/07/23 00:38:29;;;;;;;33.22;8.68;;;;;;;29.02;50.90;99094.28;5012509;28;20458;-76
2023/07/23 00:40:56;;;;;;;24.95;7.25;;;;;;;29.39;49.91;99105.97;5011303;28;20512;-76
2023/07/23 00:43:22;;;;;;;27.88;8.43;;;;;;;29.11;49.93;99100.09;5011010;28;20025;-76
2023/07/23 00:45:48;;;;;;;20.35;7.43;;;;;;;28.97;50.48;99117.94;5011621;28;20075;-76
2023/07/23 00:48:13;;;;;;;18.05;7.10;;;;;;;29.28;50.61;99114.25;5011652;28;20021;-76
2023/07/23 00:50:39;;;;;;;22.52;8.68;;;;;;;29.47;49.90;99129.56;5009879;28;20022;-76
2023/07/23 00:53:05;;;;;;;25.17;7.80;;;;;;;29.48;50.43;99131.16;5026543;28;20041;-76
2023/07/23 00:55:30;;;;;;;27.83;8.50;;;;;;;29.52;50.38;99134.69;5011877;28;20496;-76
2023/07/23 00:57:56;;;;;;;23.55;8.10;;;;;;;29.55;50.23;99130.06;5009402;28;20032;-75
2023/07/23 01:00:21;;;;;;;21.50;7.82;;;;;;;29.25;50.98;99124.63;5011050;28;20018;-75
2023/07/23 01:02:47;;;;;;;18.98;8.25;;;;;;;28.92;51.53;99136.59;5011091;28;20166;-76
2023/07/23 01:05:13;;;;;;;21.38;8.13;;;;;;;28.41;52.44;99126.16;5011754;28;20030;-76
2023/07/23 01:07:41;;;;;;;21.95;7.90;;;;;;;27.56;54.53;99121.66;5010623;28;20028;-76
2023/07/23 01:10:09;;;;;;;23.98;9.80;;;;;;;27.28;55.44;99137.72;5010660;28;20041;-76
2023/07/23 01:12:36;;;;;;;24.10;7.53;;;;;;;27.14;55.83;99133.22;5011520;28;20021;-76
2023/07/23 01:15:04;;;;;;;25.10;8.80;;;;;;;26.78;57.18;99118.66;5007991;28;20056;-76
2023/07/23 01:17:31;;;;;;;30.30;8.90;;;;;;;26.67;58.12;99126.00;5009951;28;20052;-76
2023/07/23 01:20:07;;;;;;;26.58;8.23;;;;;;;26.67;58.68;99132.56;5011635;28;20476;-76
2023/07/23 01:22:34;;;;;;;22.33;8.27;;;;;;;26.76;58.81;99137.63;5009660;28;20535;-76
2023/07/23 01:24:59;;;;;;;22.10;8.57;;;;;;;26.52;60.49;99134.19;5010476;28;20532;-76
2023/07/23 01:27:25;;;;;;;27.70;8.00;;;;;;;26.78;59.57;99135.09;5010643;28;20022;-76
2023/07/23 01:29:50;;;;;;;26.23;8.73;;;;;;;26.99;58.50;99127.91;5011578;28;20033;-76
2023/07/23 01:32:16;;;;;;;24.83;7.57;;;;;;;27.25;57.89;99145.16;5010132;28;20030;-76
2023/07/23 01:34:42;;;;;;;17.02;7.82;;;;;;;27.31;57.64;99145.41;5009623;28;20061;-76
2023/07/23 01:37:09;;;;;;;26.50;8.52;;;;;;;27.38;57.51;99155.84;5011700;28;20172;-76
2023/07/23 01:39:35;;;;;;;19.35;7.95;;;;;;;27.33;57.49;99146.56;5010718;28;21237;-76
2023/07/23 01:42:00;;;;;;;20.95;7.90;;;;;;;27.64;56.84;99164.50;5010216;28;20024;-76
2023/07/23 01:44:26;;;;;;;30.45;8.23;;;;;;;27.75;56.43;99157.13;5009885;28;20029;-76
2023/07/23 01:46:51;;;;;;;29.50;8.93;;;;;;;27.26;57.70;99160.34;5009939;28;20026;-76
2023/07/23 01:49:17;;;;;;;26.58;8.93;;;;;;;26.75;59.41;99171.22;5010078;28;20058;-76
2023/07/23 01:51:42;;;;;;;25.95;9.50;;;;;;;26.74;58.94;99163.09;5009339;28;20014;-76
2023/07/23 01:54:08;;;;;;;24.42;8.48;;;;;;;26.84;58.22;99155.41;5010016;28;20471;-76
2023/07/23 01:56:33;;;;;;;24.13;7.57;;;;;;;27.25;57.06;99162.38;5011365;28;20030;-76
2023/07/23 01:58:59;;;;;;;24.80;8.85;;;;;;;27.21;57.12;99152.28;5010551;28;20026;-76
2023/07/23 02:01:24;;;;;;;22.25;7.70;;;;;;;27.50;55.97;99157.13;5011353;28;20022;-76
2023/07/23 02:03:49;;;;;;;27.20;9.65;;;;;;;27.60;55.21;99145.31;5009951;28;20038;-76
2023/07/23 02:06:15;;;;;;;33.67;8.18;;;;;;;27.58;55.53;99156.47;5008485;28;20030;-76
2023/07/23 02:08:40;;;;;;;22.10;7.43;;;;;;;27.71;55.77;99153.59;5011147;28;20468;-76
2023/07/23 02:11:06;;;;;;;21.33;8.10;;;;;;;27.60;56.69;99158.88;5010203;28;20025;-76
2023/07/23 02:13:31;;;;;;;26.27;7.75;;;;;;;27.85;55.92;99165.84;5011019;28;20026;-76
2023/07/23 02:15:57;;;;;;;24.63;8.98;;;;;;;27.56;56.77;99164.72;5009235;28;20056;-76
2023/07/23 02:18:23;;;;;;;25.50;8.65;;;;;;;27.42;57.38;99165.16;5010471;28;20507;-76
2023/07/23 02:20:49;;;;;;;21.88;8.73;;;;;;;27.40;57.19;99164.84;5009424;28;20084;-75
2023/07/23 02:23:16;;;;;;;23.05;7.85;;;;;;;27.71;55.53;99182.31;5008761;28;20412;-75
2023/07/23 02:25:42;;;;;;;31.63;8.48;;;;;;;27.91;55.20;99177.56;5009602;28;20073;-77
2023/07/23 02:28:10;;;;;;;24.38;8.13;;;;;;;28.14;53.79;99179.25;5010579;28;20026;-76
2023/07/23 02:30:36;;;;;;;35.88;9.95;;;;;;;28.15;53.67;99175.91;5006732;28;20034;-77
2023/07/23 02:33:02;;;;;;;19.58;8.77;;;;;;;28.07;53.42;99186.03;5004602;28;20022;-77
2023/07/23 02:35:28;;;;;;;20.33;7.93;;;;;;;27.87;53.96;99190.00;5004273;28;20536;-77
2023/07/23 02:37:53;;;;;;;61.97;9.98;;;;;;;27.19;55.55;99190.84;5004375;28;20038;-77
2023/07/23 02:40:20;;;;;;;21.15;7.53;;;;;;;26.69;56.49;99190.25;5009756;28;20470;-77
2023/07/23 02:42:48;;;;;;;32.92;7.97;;;;;;;26.06;58.06;99195.16;5011974;28;20099;-77
2023/07/23 02:45:14;;;;;;;24.05;9.57;;;;;;;25.73;58.61;99192.31;5006700;28;20416;-77
2023/07/23 02:47:40;;;;;;;26.58;9.35;;;;;;;25.75;58.30;99204.91;5008870;28;20121;-77
2023/07/23 02:50:06;;;;;;;35.17;8.73;;;;;;;25.77;57.52;99204.50;5018247;28;20112;-75
2023/07/23 02:52:31;;;;;;;23.33;8.70;;;;;;;25.75;57.31;99199.19;5011663;28;20252;-76
2023/07/23 02:54:56;;;;;;;29.67;8.05;;;;;;;25.82;56.83;99203.94;5014120;28;20040;-76
2023/07/23 02:57:22;;;;;;;37.88;9.20;;;;;;;25.90;56.73;99211.13;5012386;28;20501;-77
2023/07/23 02:59:47;;;;;;;37.88;7.70;;;;;;;25.80;56.63;99206.44;5011821;28;20508;-77
2023/07/23 03:02:14;;;;;;;38.05;9.07;;;;;;;25.83;56.52;99216.22;5014297;28;20567;-76
2023/07/23 03:04:41;;;;;;;31.42;9.40;;;;;;;25.90;56.14;99211.13;5013164;28;20066;-76
2023/07/23 03:07:09;;;;;;;28.20;8.45;;;;;;;25.75;56.78;99209.84;5013890;28;20504;-76
2023/07/23 03:09:35;;;;;;;21.48;7.40;;;;;;;25.70;56.93;99213.25;5013504;28;20116;-76
2023/07/23 03:12:01;;;;;;;23.52;8.38;;;;;;;25.60;57.18;99212.25;5013749;28;20109;-76
2023/07/23 03:14:26;;;;;;;30.02;8.18;;;;;;;25.45;56.98;99221.16;5012524;28;20060;-76
2023/07/23 03:16:51;;;;;;;36.30;8.35;;;;;;;25.48;56.75;99220.25;5011579;28;20041;-76
2023/07/23 03:19:17;;;;;;;27.15;7.90;;;;;;;25.57;56.73;99231.13;5013202;28;20109;-76
2023/07/23 03:21:42;;;;;;;29.92;9.88;;;;;;;25.50;56.55;99231.31;5011613;28;20449;-76
2023/07/23 03:24:08;;;;;;;36.17;7.68;;;;;;;25.41;56.79;99228.19;5013478;28;20040;-77
2023/07/23 03:26:33;;;;;;;35.20;9.65;;;;;;;25.51;56.70;99227.19;5012903;28;20087;-76
2023/07/23 03:28:59;;;;;;;34.58;8.95;;;;;;;25.30;56.85;99237.81;5012225;28;20152;-76
2023/07/23 03:31:24;;;;;;;35.40;9.35;;;;;;;25.24;57.29;99237.53;5009363;28;20026;-76
2023/07/23 03:33:49;;;;;;;40.05;9.30;;;;;;;25.35;57.22;99256.53;5011236;28;20045;-77
2023/07/23 03:36:15;;;;;;;29.95;9.27;;;;;;;25.27;57.16;99250.16;5010992;28;20553;-76
2023/07/23 03:38:40;;;;;;;22.60;7.43;;;;;;;25.28;56.70;99271.00;5013568;28;20397;-76
2023/07/23 03:41:06;;;;;;;56.28;10.50;;;;;;;25.78;56.87;99271.97;5012270;28;20037;-76
2023/07/23 03:43:31;;;;;;;31.75;9.43;;;;;;;25.98;56.55;99282.56;4997376;28;20105;-77
2023/07/23 03:45:57;;;;;;;28.38;9.63;;;;;;;25.41;57.18;99279.72;5011270;28;20034;-77
2023/07/23 03:48:22;;;;;;;22.05;7.90;;;;;;;25.09;58.51;99282.81;5013380;28;20034;-77
2023/07/23 03:50:48;;;;;;;29.90;9.18;;;;;;;24.90;59.25;99289.34;5005747;28;20026;-77
2023/07/23 03:53:13;;;;;;;33.05;9.85;;;;;;;24.78;59.60;99293.63;5010312;28;20033;-76
2023/07/23 03:55:38;;;;;;;26.95;8.43;;;;;;;24.72;59.29;99289.66;5008846;28;20034;-76
2023/07/23 03:58:04;;;;;;;26.48;10.38;;;;;;;24.80;59.34;99288.31;5013177;28;20084;-77
2023/07/23 04:00:29;;;;;;;23.02;9.30;;;;;;;24.80;59.36;99297.69;5008828;28;20029;-78
2023/07/23 04:02:55;;;;;;;33.25;10.68;;;;;;;24.90;59.52;99298.72;5000459;28;20038;-76
2023/07/23 04:05:20;;;;;;;20.98;8.95;;;;;;;24.85;59.37;99298.41;5010052;28;20032;-77
2023/07/23 04:07:46;;;;;;;31.10;10.65;;;;;;;24.93;59.59;99303.56;5006955;28;20033;-74
2023/07/23 04:10:11;;;;;;;23.50;9.27;;;;;;;25.04;59.84;99300.50;5008053;28;20025;-77
2023/07/23 04:12:37;;;;;;;25.50;8.70;;;;;;;25.06;60.57;99306.56;5026950;28;20040;-76
2023/07/23 04:15:03;;;;;;;22.42;8.30;;;;;;;25.06;61.44;99320.88;5012746;28;20033;-76
2023/07/23 04:17:28;;;;;;;20.95;6.85;;;;;;;25.12;62.04;99326.91;5011114;28;20520;-76
2023/07/23 04:19:54;;;;;;;19.50;7.30;;;;;;;25.35;61.57;99316.63;5011272;28;20053;-75
2023/07/23 04:22:19;;;;;;;17.75;7.25;;;;;;;25.40;61.81;99315.31;5011829;28;20099;-74
2023/07/23 04:24:45;;;;;;;19.85;6.88;;;;;;;25.44;61.78;99324.63;5004836;28;20034;-77
2023/07/23 04:27:10;;;;;;;15.05;5.60;;;;;;;25.57;61.50;99319.88;5008898;28;20034;-77
2023/07/23 04:29:35;;;;;;;20.10;6.82;;;;;;;25.72;61.32;99325.31;5006640;28;20040;-77
2023/07/23 04:32:01;;;;;;;19.05;6.65;;;;;;;25.93;60.52;99339.13;5011029;28;20030;-77
2023/07/23 04:34:26;;;;;;;21.42;6.95;;;;;;;25.97;59.50;99336.19;5005080;28;20053;-77
2023/07/23 04:36:52;;;;;;;17.33;6.30;;;;;;;26.08;59.07;99335.94;5020377;28;20045;-77
2023/07/23 04:39:19;;;;;;;17.38;6.97;;;;;;;26.33;57.66;99348.91;5011111;28;20030;-77
2023/07/23 04:41:45;;;;;;;16.35;6.13;;;;;;;26.49;56.62;99350.97;5009301;28;20037;-77
2023/07/23 04:44:10;;;;;;;24.80;7.00;;;;;;;26.68;55.17;99349.25;5005777;28;20038;-77
2023/07/23 04:46:36;;;;;;;23.17;7.15;;;;;;;26.94;54.23;99346.56;5009921;28;20068;-78
2023/07/23 04:49:01;;;;;;;27.15;8.35;;;;;;;26.99;53.99;99348.06;5011564;28;20033;-77
2023/07/23 04:51:26;;;;;;;34.25;8.90;;;;;;;27.35;52.73;99344.19;5005656;28;20021;-77
2023/07/23 04:53:52;;;;;;;25.58;7.32;;;;;;;27.59;52.41;99350.50;5007871;28;20163;-77
2023/07/23 04:56:17;;;;;;;37.40;8.32;;;;;;;27.83;51.94;99355.94;5012045;28;20033;-78
2023/07/23 04:58:43;;;;;;;27.83;6.97;;;;;;;28.05;52.08;99357.31;5011751;28;20053;-77
2023/07/23 05:01:11;;;;;;;16.20;5.88;;;;;;;27.91;52.32;99358.59;5005824;28;20042;-78
2023/07/23 05:03:37;;;;;;;15.20;5.78;;;;;;;27.79;52.92;99349.50;5000829;28;20441;-78
2023/07/23 05:06:03;;;;;;;30.38;6.32;;;;;;;27.77;53.07;99357.78;5010156;28;20048;-79
2023/07/23 05:08:29;;;;;;;17.38;6.05;;;;;;;27.76;53.34;99350.41;5011860;28;20064;-77
2023/07/23 05:11:04;;;;;;;20.80;7.40;;;;;;;27.96;53.02;99352.28;5026895;28;20025;-77
2023/07/23 05:13:31;;;;;;;17.15;6.57;;;;;;;28.07;53.11;99357.69;5008433;28;20057;-77
2023/07/23 05:16:03;;;;;;;14.75;6.25;;;;;;;28.14;52.46;99361.16;5002964;28;20112;-79
2023/07/23 05:18:29;;;;;;;25.42;7.05;;;;;;;28.20;51.64;99351.97;5002952;28;20033;-78
2023/07/23 05:20:55;;;;;;;21.60;6.03;;;;;;;28.16;52.37;99355.72;5009685;28;20029;-83
2023/07/23 05:23:22;;;;;;;18.02;6.50;;;;;;;28.28;52.32;99367.72;5009374;28;20489;-80
2023/07/23 05:25:47;;;;;;;23.30;7.05;;;;;;;28.09;52.57;99370.31;5010503;28;20022;-79
2023/07/23 05:28:13;;;;;;;21.88;7.65;;;;;;;28.01;52.60;99361.13;5006486;28;20353;-79
2023/07/23 05:30:39;;;;;;;21.17;6.55;;;;;;;28.20;52.45;99372.09;5008487;28;20417;-82
2023/07/23 05:33:05;;;;;;;24.70;7.80;;;;;;;28.04;52.78;99368.03;5000835;28;20516;-77
2023/07/23 05:35:30;;;;;;;17.80;6.50;;;;;;;28.09;53.41;99366.66;5002531;28;20046;-78
2023/07/23 05:37:56;;;;;;;28.60;6.45;;;;;;;28.38;52.53;99368.63;5009861;28;20092;-78
2023/07/23 05:40:21;;;;;;;26.17;6.75;;;;;;;28.35;52.63;99366.69;5008730;28;20033;-78
2023/07/23 05:42:47;;;;;;;21.63;7.30;;;;;;;28.49;52.03;99366.22;5008444;28;20119;-80
2023/07/23 05:45:12;;;;;;;19.23;7.25;;;;;;;28.65;50.81;99371.03;5010150;28;20416;-77
2023/07/23 05:47:38;;;;;;;17.63;6.25;;;;;;;28.71;50.67;99362.63;5008747;28;20025;-77
2023/07/23 05:50:04;;;;;;;16.67;7.38;;;;;;;28.86;50.33;99355.13;5008055;28;20484;-77
2023/07/23 05:52:29;;;;;;;15.55;6.32;;;;;;;28.82;51.04;99353.63;5009163;28;20088;-76
2023/07/23 05:54:55;;;;;;;17.42;6.30;;;;;;;28.97;51.04;99363.38;5007880;28;20038;-79
2023/07/23 05:57:20;;;;;;;21.35;6.88;;;;;;;28.80;51.08;99359.03;5013027;28;20033;-78
2023/07/23 05:59:46;;;;;;;16.73;7.30;;;;;;;28.95;50.63;99351.50;5011559;28;20030;-74
2023/07/23 06:02:11;;;;;;;23.80;7.15;;;;;;;28.96;49.41;99361.78;5011557;28;20030;-76
2023/07/23 06:04:39;;;;;;;15.80;7.10;;;;;;;29.07;50.75;99358.50;5011031;28;20048;-75
2023/07/23 06:07:04;;;;;;;15.98;7.20;;;;;;;28.98;49.95;99356.38;5009902;28;20084;-74
2023/07/23 06:09:30;;;;;;;17.38;6.63;;;;;;;28.98;49.54;99362.13;5011258;28;20029;-74
2023/07/23 06:11:55;;;;;;;23.27;7.05;;;;;;;29.15;49.01;99347.53;5011034;28;20049;-75
2023/07/23 06:14:21;;;;;;;21.95;7.50;;;;;;;29.42;49.05;99351.91;5013299;28;20088;-76
2023/07/23 06:16:46;;;;;;;16.85;6.95;;;;;;;29.55;47.41;99341.13;5014496;28;20068;-74
2023/07/23 06:19:12;;;;;;;15.63;7.10;;;;;;;29.59;47.61;99340.22;5014856;28;20026;-73
2023/07/23 06:21:37;;;;;;;19.85;8.88;;;;;;;29.63;47.53;99344.56;5010628;28;20017;-76
2023/07/23 06:24:03;;;;;;;14.32;7.57;;;;;;;29.82;46.71;99342.59;5013698;28;20022;-76
2023/07/23 06:26:28;;;;;;;14.35;7.18;;;;;;;29.81;46.51;99340.19;5015288;28;20034;-78
2023/07/23 06:28:54;;;;;;;18.38;7.22;;;;;;;29.87;45.70;99338.31;5015099;28;20033;-78
2023/07/23 06:31:19;;;;;;;18.05;6.82;;;;;;;29.81;45.01;99345.94;5009308;28;20053;-74
2023/07/23 06:33:45;;;;;;;16.58;7.05;;;;;;;29.74;45.60;99338.38;5003968;28;20057;-75
2023/07/23 06:36:10;;;;;;;16.63;7.88;;;;;;;29.81;45.03;99335.22;5014638;28;20044;-74
2023/07/23 06:38:36;;;;;;;25.80;7.65;;;;;;;29.83;43.56;99338.44;5010250;28;20092;-77
2023/07/23 06:41:01;;;;;;;16.67;6.57;;;;;;;29.83;43.20;99332.69;5013360;28;20034;-77
2023/07/23 06:43:27;;;;;;;13.13;7.15;;;;;;;30.22;43.19;99334.47;5009000;28;20121;-77
2023/07/23 06:45:52;;;;;;;21.77;7.53;;;;;;;30.33;43.83;99337.72;5011131;28;20704;-79
2023/07/23 06:48:20;;;;;;;24.42;7.43;;;;;;;30.22;41.79;99335.25;5023655;28;20123;-77
2023/07/23 06:50:46;;;;;;;20.33;6.18;;;;;;;30.22;40.87;99341.03;5005031;28;20113;-78
2023/07/23 06:53:13;;;;;;;23.67;7.78;;;;;;;30.31;41.82;99331.63;5000074;28;20034;-77
2023/07/23 06:56:00;;;;;;;14.50;5.80;;;;;;;30.52;40.93;99340.63;5012344;28;20026;-76
2023/07/23 06:58:27;;;;;;;13.23;6.20;;;;;;;30.61;39.99;99334.09;5014022;28;20049;-78
2023/07/23 07:00:52;;;;;;;12.25;6.55;;;;;;;30.36;39.71;99344.63;5010967;28;20063;-75
2023/07/23 07:03:18;;;;;;;16.35;5.60;;;;;;;30.59;39.53;99334.56;5016035;28;20428;-76
2023/07/23 07:05:43;;;;;;;14.32;7.15;;;;;;;30.68;40.26;99346.19;5015094;28;20026;-76
2023/07/23 07:08:09;;;;;;;20.15;6.53;;;;;;;30.54;37.94;99349.66;5013523;28;20026;-78
2023/07/23 07:10:34;;;;;;;11.20;7.07;;;;;;;30.66;39.12;99342.97;5014008;28;20528;-80
2023/07/23 07:12:59;;;;;;;15.43;6.63;;;;;;;31.15;37.75;99342.53;5012758;28;20041;-79
2023/07/23 07:15:26;;;;;;;17.75;6.25;;;;;;;31.13;35.72;99345.88;5011879;28;20022;-78
2023/07/23 07:17:51;;;;;;;11.52;6.60;;;;;;;31.12;35.78;99346.38;5011478;28;20030;-77
2023/07/23 07:20:16;;;;;;;15.43;6.82;;;;;;;31.09;36.68;99346.06;5004583;28;20175;-76
2023/07/23 07:22:42;;;;;;;22.35;8.30;;;;;;;31.37;35.93;99348.16;5000870;28;20037;-74
2023/07/23 07:25:07;;;;;;;12.50;6.35;;;;;;;31.65;34.90;99345.22;4991196;28;20037;-77
2023/07/23 07:27:33;;;;;;;24.33;6.85;;;;;;;31.75;33.11;99340.22;4998054;28;20065;-75
2023/07/23 07:29:58;;;;;;;18.67;6.65;;;;;;;31.67;32.68;99351.31;4999370;28;20088;-77
2023/07/23 07:32:24;;;;;;;15.25;6.32;;;;;;;31.58;32.98;99336.88;5009127;28;20098;-78
2023/07/23 07:34:49;;;;;;;31.70;7.47;;;;;;;31.78;31.72;99345.84;5005526;28;20050;-78
2023/07/23 07:37:15;;;;;;;16.65;6.88;;;;;;;31.95;31.65;99348.38;5005571;28;20038;-78
2023/07/23 07:39:41;;;;;;;13.80;6.50;;;;;;;31.78;31.66;99339.25;5005583;28;20045;-80
2023/07/23 07:42:07;;;;;;;17.02;5.85;;;;;;;31.91;30.61;99341.97;5003589;28;20094;-78
2023/07/23 07:44:32;;;;;;;25.38;7.07;;;;;;;32.13;30.30;99340.94;5013495;28;20080;-76
2023/07/23 07:46:58;;;;;;;13.65;6.43;;;;;;;32.54;30.67;99341.38;4999759;28;20068;-75
2023/07/23 07:49:24;;;;;;;17.65;6.60;;;;;;;32.43;30.33;99341.13;5002491;28;20041;-76
2023/07/23 07:51:49;;;;;;;15.02;7.07;;;;;;;32.14;31.74;99349.09;4993389;28;20073;-76
2023/07/23 07:54:15;;;;;;;13.57;6.63;;;;;;;32.06;31.54;99351.56;4999884;28;20469;-76
2023/07/23 07:56:42;;;;;;;23.75;6.43;;;;;;;32.62;30.87;99342.63;4997666;28;20034;-77
2023/07/23 07:59:08;;;;;;;25.20;7.78;;;;;;;32.77;29.42;99347.69;5009152;28;20044;-77
2023/07/23 08:01:33;;;;;;;21.33;6.28;;;;;;;32.51;30.39;99339.50;5002723;28;20527;-76
2023/07/23 08:04:01;;;;;;;12.98;6.20;;;;;;;32.76;30.83;99337.41;5010335;28;20022;-79
2023/07/23 08:06:28;;;;;;;10.25;5.88;;;;;;;33.01;29.35;99332.41;5010577;28;20026;-82
2023/07/23 08:08:57;;;;;;;24.83;7.72;;;;;;;33.09;29.50;99345.22;5022190;28;20124;-79
2023/07/23 08:11:24;;;;;;;21.95;6.35;;;;;;;33.34;29.07;99343.09;5008804;28;20030;-78
2023/07/23 08:13:50;;;;;;;17.58;5.82;;;;;;;33.58;28.35;99339.34;5005503;28;20475;-78
2023/07/23 08:16:18;;;;;;;11.43;5.85;;;;;;;33.27;29.10;99344.28;5006931;28;20488;-77
2023/07/23 08:18:44;;;;;;;12.00;6.30;;;;;;;33.09;28.56;99333.66;5008749;28;20040;-80
2023/07/23 08:21:13;;;;;;;17.23;5.90;;;;;;;33.13;27.80;99328.44;5010240;28;20026;-77
2023/07/23 08:23:39;;;;;;;;;;;;;;;33.32;27.52;99346.47;5010273;28;20508;-79
2023/07/23 08:26:06;;;;;;;11.43;6.18;;;;;;;32.91;28.24;99346.97;5006672;28;19939;-77
2023/07/23 08:28:37;;;;;;;13.27;5.82;;;;;;;33.05;27.71;99333.03;5011154;28;20033;-81
2023/07/23 08:31:03;;;;;;;14.55;6.15;;;;;;;33.33;28.27;99341.50;5013210;28;20477;-78
2023/07/23 08:33:30;;;;;;;8.70;5.90;;;;;;;33.13;27.72;99340.03;5009258;28;20053;-78
2023/07/23 08:35:57;;;;;;;17.02;5.70;;;;;;;33.21;26.21;99340.44;5013056;28;20033;-79
2023/07/23 08:38:24;;;;;;;12.60;5.15;;;;;;;33.25;26.30;99340.25;5010494;28;20057;-79
2023/07/23 08:40:58;;;;;;;10.55;6.40;;;;;;;33.77;25.91;99344.94;5012889;28;20242;-81
2023/07/23 08:43:56;;;;;;;13.65;5.88;;;;;;;34.01;25.89;99334.03;5010124;28;20018;-80
2023/07/23 08:46:26;;;;;;;17.25;5.90;;;;;;;33.89;26.07;99332.22;5009640;28;20468;-78
2023/07/23 08:48:56;;;;;;;23.60;6.18;;;;;;;34.26;24.97;99325.19;5011057;28;20026;-80
2023/07/23 08:51:26;;;;;;;41.85;7.57;;;;;;;34.38;23.98;99331.97;5006662;28;20061;-79
2023/07/23 08:53:53;;;;;;;25.90;6.03;;;;;;;34.09;23.29;99328.66;5022068;28;20034;-77
2023/07/23 08:56:19;;;;;;;27.20;6.43;;;;;;;33.68;23.86;99340.03;4987602;28;20037;-75
2023/07/23 08:58:45;;;;;;;19.33;5.80;;;;;;;33.61;22.09;99332.53;4990814;28;20029;-73
2023/07/23 09:01:15;;;;;;;68.82;8.57;;;;;;;34.10;22.92;99314.94;4989966;28;20405;-73
2023/07/23 09:03:41;;;;;;;11.95;5.95;;;;;;;34.22;23.84;99328.31;4996501;28;20034;-73
2023/07/23 09:06:08;;;;;;;21.52;5.78;;;;;;;33.84;22.45;99336.63;4998458;28;20068;-75
2023/07/23 09:08:34;;;;;;;15.50;6.32;;;;;;;33.92;22.13;99324.63;5008056;28;20548;-73
2023/07/23 09:11:04;;;;;;;23.38;6.50;;;;;;;34.17;21.56;99326.13;5009527;28;20490;-73
2023/07/23 09:13:34;;;;;;;27.52;6.55;;;;;;;34.04;22.21;99308.25;5007964;28;20109;-74
2023/07/23 09:16:00;;;;;;;18.60;6.95;;;;;;;34.09;21.97;99316.22;4996159;28;20584;-74
2023/07/23 09:18:26;;;;;;;12.23;6.82;;;;;;;34.38;22.30;99317.44;5005870;28;20125;-75
2023/07/23 09:20:51;;;;;;;13.85;7.38;;;;;;;34.30;21.67;99311.28;5009547;28;20168;-74
2023/07/23 09:23:17;;;;;;;11.63;5.72;;;;;;;34.43;22.22;99310.94;5009224;28;20496;-73
2023/07/23 09:25:44;;;;;;;11.85;6.28;;;;;;;34.79;22.06;99317.53;4998107;28;20041;-75
2023/07/23 09:28:23;;;;;;;28.25;8.25;;;;;;;34.51;21.83;99293.91;5002661;28;20036;-73
2023/07/23 09:30:52;;;;;;;15.05;7.13;;;;;;;34.51;21.81;99306.34;5005230;28;20034;-72
2023/07/23 09:33:18;;;;;;;19.17;7.65;;;;;;;34.90;21.82;99304.47;5005134;28;20033;-73
2023/07/23 09:35:43;;;;;;;27.02;7.68;;;;;;;34.88;21.55;99301.28;5007585;28;20026;-72
2023/07/23 09:38:14;;;;;;;14.63;7.85;;;;;;;34.39;21.85;99304.53;5008521;28;20034;-71
2023/07/23 09:40:41;;;;;;;11.38;6.85;;;;;;;34.56;21.84;99308.53;5007089;28;20044;-72
2023/07/23 09:43:08;;;;;;;18.58;7.75;;;;;;;34.78;21.41;99307.22;5008099;28;20030;-71
2023/07/23 09:45:38;;;;;;;15.15;7.90;;;;;;;35.08;21.37;99315.78;5006750;28;20025;-71
2023/07/23 09:48:04;;;;;;;17.60;6.53;;;;;;;35.09;20.99;99314.47;5006147;28;20477;-75
2023/07/23 09:50:30;;;;;;;16.27;7.43;;;;;;;34.88;21.32;99310.78;5006965;28;20034;-75
2023/07/23 09:52:56;;;;;;;31.30;9.13;;;;;;;35.46;19.88;99309.31;4998174;28;20128;-77
2023/07/23 09:55:23;;;;;;;14.65;7.03;;;;;;;35.14;21.27;99302.13;5009932;28;20126;-76
2023/07/23 09:57:50;;;;;;;16.60;8.52;;;;;;;35.45;21.38;99301.91;5009104;28;20411;-74
2023/07/23 10:00:16;;;;;;;43.13;10.75;;;;;;;35.11;20.48;99308.16;5018093;28;20025;-74
2023/07/23 10:02:43;;;;;;;13.60;8.82;;;;;;;34.54;21.45;99301.63;5015053;28;20029;-77
2023/07/23 10:05:15;;;;;;;15.52;8.20;;;;;;;35.33;20.67;99301.78;5008398;28;20030;-75
2023/07/23 10:07:41;;;;;;;16.50;8.57;;;;;;;35.27;21.67;99298.03;5014861;28;20043;-73
2023/07/23 10:10:07;;;;;;;19.02;8.90;;;;;;;34.98;21.85;99299.78;5016605;28;20022;-75
2023/07/23 10:12:33;;;;;;;18.50;9.38;;;;;;;34.94;21.88;99302.13;5009393;28;20018;-76
2023/07/23 10:14:59;;;;;;;14.73;8.30;;;;;;;35.06;21.61;99298.06;5016360;28;20116;-74
2023/07/23 10:17:26;;;;;;;21.83;9.77;;;;;;;35.18;21.54;99292.38;5021958;28;20029;-74
2023/07/23 10:19:53;;;;;;;24.17;10.50;;;;;;;34.99;20.53;99283.94;5014987;28;20488;-77
2023/07/23 10:22:21;;;;;;;20.05;9.23;;;;;;;35.48;20.66;99289.25;5002520;28;20026;-73
2023/07/23 10:24:53;;;;;;;16.92;8.35;;;;;;;35.64;20.11;99294.47;5000780;28;20116;-74
2023/07/23 10:27:19;;;;;;;15.50;8.52;;;;;;;35.67;20.26;99290.53;4996745;28;20084;-74
2023/07/23 10:30:22;;;;;;;21.92;11.15;;;;;;;35.70;20.08;99292.38;4996800;28;20065;-74
2023/07/23 10:33:10;;;;;;;30.25;9.60;;;;;;;36.13;20.58;99281.38;5013995;28;20026;-75
2023/07/23 10:35:54;;;;;;;16.90;8.48;;;;;;;36.34;20.27;99282.81;5002955;28;20480;-75
2023/07/23 10:38:23;;;;;;;21.67;9.70;;;;;;;36.16;20.28;99289.09;5009371;28;20030;-75
2023/07/23 10:40:49;;;;;;;14.13;9.43;;;;;;;36.27;20.39;99279.63;4996047;28;20468;-75
2023/07/23 10:43:16;;;;;;;25.15;10.35;;;;;;;35.73;20.24;99267.31;4995315;28;20031;-75
2023/07/23 10:45:49;;;;;;;12.68;8.70;;;;;;;35.92;20.45;99272.75;5007971;28;20477;-75
2023/07/23 10:48:17;;;;;;;16.83;8.60;;;;;;;36.23;20.45;99266.09;4999311;28;20496;-76
2023/07/23 10:51:00;;;;;;;12.07;8.80;;;;;;;36.45;20.80;99269.66;4996485;28;20033;-76
2023/07/23 10:53:30;;;;;;;11.50;7.75;;;;;;;36.33;20.64;99275.41;5008383;28;20046;-75
2023/07/23 10:55:59;;;;;;;16.80;8.05;;;;;;;35.67;21.43;99272.28;4997194;28;20101;-75
2023/07/23 10:58:26;;;;;;;17.85;8.38;;;;;;;35.52;21.35;99264.44;5005331;28;20168;-75
2023/07/23 11:00:58;;;;;;;24.10;9.07;;;;;;;35.74;20.72;99262.31;4999529;28;20121;-75
2023/07/23 11:03:25;;;;;;;24.48;10.38;;;;;;;36.08;20.66;99271.28;5001114;28;20026;-75
2023/07/23 11:05:52;;;;;;;15.90;9.35;;;;;;;36.48;20.03;99277.34;5006689;28;20034;-75
2023/07/23 11:08:19;;;;;;;13.20;8.82;;;;;;;36.37;20.48;99258.50;5011682;28;20030;-75
2023/07/23 11:10:57;;;;;;;19.50;8.32;;;;;;;35.80;21.45;99275.56;5014645;28;20067;-75
2023/07/23 11:13:25;;;;;;;13.60;9.18;;;;;;;36.04;21.04;99264.88;5003230;28;20064;-75
2023/07/23 11:15:51;;;;;;;18.25;9.52;;;;;;;36.54;20.38;99269.44;5005434;28;20499;-75
2023/07/23 11:18:19;;;;;;;23.30;8.57;;;;;;;36.38;21.57;99270.94;5006050;28;20408;-75
2023/07/23 11:20:50;;;;;;;18.83;10.30;;;;;;;36.79;20.89;99253.16;5011997;28;20074;-75
2023/07/23 11:23:17;;;;;;;19.60;8.43;;;;;;;36.45;20.51;99252.19;5010679;28;20105;-75